sensor_id;sensor_type;location;lat;lon;timestamp;P1;durP1;ratioP1;P2;durP2;ratioP2
51654;SDS011;37732;53.106;7.030;2024-01-11T00:00:05;42.33;;;29.83;;
51654;SDS011;37732;53.106;7.030;2024-01-11T00:02:31;35.72;;;24.98;;
51654;SDS011;37732;53.106;7.030;2024-01-11T00:04:58;41.05;;;31.02;;
51654;SDS011;37732;53.106;7.030;2024-01-11T00:07:23;42.35;;;29.17;;
51654;SDS011;37732;53.106;7.030;2024-01-11T00:09:49;36.65;;;23.23;;
51654;SDS011;37732;53.106;7.030;2024-01-11T00:12:14;38.05;;;25.58;;
51654;SDS011;37732;53.106;7.030;2024-01-11T00:14:40;43.80;;;33.35;;
51654;SDS011;37732;53.106;7.030;2024-01-11T00:17:06;43.88;;;34.15;;
51654;SDS011;37732;53.106;7.030;2024-01-11T00:19:33;47.40;;;35.65;;
51654;SDS011;37732;53.106;7.030;2024-01-11T00:21:59;43.53;;;27.38;;
51654;SDS011;37732;53.106;7.030;2024-01-11T00:24:26;42.40;;;29.60;;
51654;SDS011;37732;53.106;7.030;2024-01-11T00:26:51;47.17;;;30.30;;
51654;SDS011;37732;53.106;7.030;2024-01-11T00:29:17;39.10;;;30.02;;
51654;SDS011;37732;53.106;7.030;2024-01-11T00:31:43;41.20;;;32.25;;
51654;SDS011;37732;53.106;7.030;2024-01-11T00:34:08;38.40;;;28.25;;
51654;SDS011;37732;53.106;7.030;2024-01-11T00:36:34;42.35;;;29.80;;
51654;SDS011;37732;53.106;7.030;2024-01-11T00:39:04;40.50;;;31.52;;
51654;SDS011;37732;53.106;7.030;2024-01-11T00:41:30;39.65;;;24.05;;
51654;SDS011;37732;53.106;7.030;2024-01-11T00:43:55;38.72;;;27.55;;
51654;SDS011;37732;53.106;7.030;2024-01-11T00:46:21;38.08;;;26.67;;
51654;SDS011;37732;53.106;7.030;2024-01-11T00:48:47;41.17;;;28.00;;
51654;SDS011;37732;53.106;7.030;2024-01-11T00:51:13;39.60;;;26.45;;
51654;SDS011;37732;53.106;7.030;2024-01-11T00:53:38;37.53;;;25.92;;
51654;SDS011;37732;53.106;7.030;2024-01-11T00:56:04;39.00;;;30.60;;
51654;SDS011;37732;53.106;7.030;2024-01-11T00:58:30;44.20;;;34.80;;
51654;SDS011;37732;53.106;7.030;2024-01-11T01:00:56;42.90;;;33.40;;
51654;SDS011;37732;53.106;7.030;2024-01-11T01:03:22;43.22;;;33.05;;
51654;SDS011;37732;53.106;7.030;2024-01-11T01:05:48;47.00;;;31.45;;
51654;SDS011;37732;53.106;7.030;2024-01-11T01:08:14;40.65;;;23.58;;
51654;SDS011;37732;53.106;7.030;2024-01-11T01:10:39;41.42;;;28.65;;
51654;SDS011;37732;53.106;7.030;2024-01-11T01:13:07;37.47;;;28.33;;
51654;SDS011;37732;53.106;7.030;2024-01-11T01:15:32;38.08;;;27.40;;
51654;SDS011;37732;53.106;7.030;2024-01-11T01:17:58;46.50;;;31.27;;
51654;SDS011;37732;53.106;7.030;2024-01-11T01:20:23;43.20;;;31.58;;
51654;SDS011;37732;53.106;7.030;2024-01-11T01:22:49;44.40;;;33.63;;
51654;SDS011;37732;53.106;7.030;2024-01-11T01:25:18;42.50;;;27.75;;
51654;SDS011;37732;53.106;7.030;2024-01-11T01:27:44;40.63;;;23.17;;
51654;SDS011;37732;53.106;7.030;2024-01-11T01:30:09;41.95;;;27.48;;
51654;SDS011;37732;53.106;7.030;2024-01-11T01:32:35;44.40;;;31.65;;
51654;SDS011;37732;53.106;7.030;2024-01-11T01:35:01;46.75;;;34.33;;
51654;SDS011;37732;53.106;7.030;2024-01-11T01:37:26;41.90;;;31.05;;
51654;SDS011;37732;53.106;7.030;2024-01-11T01:39:52;50.58;;;34.08;;
51654;SDS011;37732;53.106;7.030;2024-01-11T01:42:19;46.28;;;37.33;;
51654;SDS011;37732;53.106;7.030;2024-01-11T01:44:45;50.15;;;32.55;;
51654;SDS011;37732;53.106;7.030;2024-01-11T01:47:11;54.67;;;38.15;;
51654;SDS011;37732;53.106;7.030;2024-01-11T01:49:40;50.08;;;33.38;;
51654;SDS011;37732;53.106;7.030;2024-01-11T01:52:06;43.17;;;29.90;;
51654;SDS011;37732;53.106;7.030;2024-01-11T01:54:33;49.58;;;34.70;;
51654;SDS011;37732;53.106;7.030;2024-01-11T01:56:59;52.13;;;35.33;;
51654;SDS011;37732;53.106;7.030;2024-01-11T01:59:26;46.90;;;33.05;;
51654;SDS011;37732;53.106;7.030;2024-01-11T02:01:54;44.90;;;34.28;;
51654;SDS011;37732;53.106;7.030;2024-01-11T02:04:20;49.38;;;31.67;;
51654;SDS011;37732;53.106;7.030;2024-01-11T02:06:48;44.72;;;35.33;;
51654;SDS011;37732;53.106;7.030;2024-01-11T02:09:14;45.72;;;28.95;;
51654;SDS011;37732;53.106;7.030;2024-01-11T02:11:42;44.53;;;32.35;;
51654;SDS011;37732;53.106;7.030;2024-01-11T02:14:10;44.72;;;30.98;;
51654;SDS011;37732;53.106;7.030;2024-01-11T02:16:36;42.13;;;28.75;;
51654;SDS011;37732;53.106;7.030;2024-01-11T02:19:03;42.25;;;32.92;;
51654;SDS011;37732;53.106;7.030;2024-01-11T02:21:31;51.22;;;35.45;;
51654;SDS011;37732;53.106;7.030;2024-01-11T02:24:04;48.80;;;31.92;;
51654;SDS011;37732;53.106;7.030;2024-01-11T02:26:31;51.17;;;36.75;;
51654;SDS011;37732;53.106;7.030;2024-01-11T02:28:57;45.45;;;34.20;;
51654;SDS011;37732;53.106;7.030;2024-01-11T02:31:23;47.88;;;34.70;;
51654;SDS011;37732;53.106;7.030;2024-01-11T02:33:50;44.13;;;27.02;;
51654;SDS011;37732;53.106;7.030;2024-01-11T02:36:17;45.42;;;31.20;;
51654;SDS011;37732;53.106;7.030;2024-01-11T02:38:43;49.00;;;36.25;;
51654;SDS011;37732;53.106;7.030;2024-01-11T02:41:09;44.85;;;29.38;;
51654;SDS011;37732;53.106;7.030;2024-01-11T02:43:36;38.38;;;23.55;;
51654;SDS011;37732;53.106;7.030;2024-01-11T02:46:05;40.58;;;31.15;;
51654;SDS011;37732;53.106;7.030;2024-01-11T02:48:31;40.05;;;29.08;;
51654;SDS011;37732;53.106;7.030;2024-01-11T02:50:57;45.28;;;28.02;;
51654;SDS011;37732;53.106;7.030;2024-01-11T02:53:23;41.25;;;29.90;;
51654;SDS011;37732;53.106;7.030;2024-01-11T02:55:49;49.13;;;35.33;;
51654;SDS011;37732;53.106;7.030;2024-01-11T02:58:15;44.78;;;29.52;;
51654;SDS011;37732;53.106;7.030;2024-01-11T03:00:41;46.60;;;35.80;;
51654;SDS011;37732;53.106;7.030;2024-01-11T03:03:07;44.38;;;24.08;;
51654;SDS011;37732;53.106;7.030;2024-01-11T03:05:32;45.33;;;34.13;;
51654;SDS011;37732;53.106;7.030;2024-01-11T03:07:58;47.63;;;32.55;;
51654;SDS011;37732;53.106;7.030;2024-01-11T03:10:24;46.50;;;32.92;;
51654;SDS011;37732;53.106;7.030;2024-01-11T03:12:50;46.33;;;32.00;;
51654;SDS011;37732;53.106;7.030;2024-01-11T03:15:15;42.53;;;27.30;;
51654;SDS011;37732;53.106;7.030;2024-01-11T03:17:41;44.22;;;29.70;;
51654;SDS011;37732;53.106;7.030;2024-01-11T03:20:07;44.00;;;29.33;;
51654;SDS011;37732;53.106;7.030;2024-01-11T03:22:33;46.70;;;29.95;;
51654;SDS011;37732;53.106;7.030;2024-01-11T03:24:59;49.47;;;34.90;;
51654;SDS011;37732;53.106;7.030;2024-01-11T03:27:24;49.35;;;34.28;;
51654;SDS011;37732;53.106;7.030;2024-01-11T03:29:50;50.47;;;33.30;;
51654;SDS011;37732;53.106;7.030;2024-01-11T03:32:16;45.78;;;27.23;;
51654;SDS011;37732;53.106;7.030;2024-01-11T03:34:41;48.30;;;34.60;;
51654;SDS011;37732;53.106;7.030;2024-01-11T03:37:07;47.72;;;29.73;;
51654;SDS011;37732;53.106;7.030;2024-01-11T03:39:33;46.30;;;33.67;;
51654;SDS011;37732;53.106;7.030;2024-01-11T03:42:00;50.28;;;30.98;;
51654;SDS011;37732;53.106;7.030;2024-01-11T03:44:25;52.83;;;37.08;;
51654;SDS011;37732;53.106;7.030;2024-01-11T03:46:51;58.92;;;39.75;;
51654;SDS011;37732;53.106;7.030;2024-01-11T03:49:17;55.33;;;40.83;;
51654;SDS011;37732;53.106;7.030;2024-01-11T03:51:43;45.22;;;26.27;;
51654;SDS011;37732;53.106;7.030;2024-01-11T03:54:09;45.70;;;30.08;;
51654;SDS011;37732;53.106;7.030;2024-01-11T03:56:38;52.05;;;37.13;;
51654;SDS011;37732;53.106;7.030;2024-01-11T03:59:04;53.58;;;38.42;;
51654;SDS011;37732;53.106;7.030;2024-01-11T04:01:31;46.63;;;35.58;;
51654;SDS011;37732;53.106;7.030;2024-01-11T04:03:57;52.10;;;32.13;;
51654;SDS011;37732;53.106;7.030;2024-01-11T04:06:23;48.97;;;30.88;;
51654;SDS011;37732;53.106;7.030;2024-01-11T04:08:49;48.05;;;36.60;;
51654;SDS011;37732;53.106;7.030;2024-01-11T04:11:16;49.08;;;25.55;;
51654;SDS011;37732;53.106;7.030;2024-01-11T04:13:42;47.13;;;36.58;;
51654;SDS011;37732;53.106;7.030;2024-01-11T04:16:08;42.15;;;27.30;;
51654;SDS011;37732;53.106;7.030;2024-01-11T04:18:33;43.53;;;28.90;;
51654;SDS011;37732;53.106;7.030;2024-01-11T04:21:01;39.78;;;22.40;;
51654;SDS011;37732;53.106;7.030;2024-01-11T04:23:26;48.30;;;29.20;;
51654;SDS011;37732;53.106;7.030;2024-01-11T04:25:52;49.47;;;35.30;;
51654;SDS011;37732;53.106;7.030;2024-01-11T04:28:18;58.55;;;36.50;;
51654;SDS011;37732;53.106;7.030;2024-01-11T04:30:44;48.50;;;33.00;;
51654;SDS011;37732;53.106;7.030;2024-01-11T04:33:09;46.83;;;30.75;;
51654;SDS011;37732;53.106;7.030;2024-01-11T04:35:35;54.67;;;35.80;;
51654;SDS011;37732;53.106;7.030;2024-01-11T04:38:01;63.47;;;45.97;;
51654;SDS011;37732;53.106;7.030;2024-01-11T04:40:27;58.00;;;43.67;;
51654;SDS011;37732;53.106;7.030;2024-01-11T04:42:53;46.70;;;29.15;;
51654;SDS011;37732;53.106;7.030;2024-01-11T04:45:19;64.00;;;43.58;;
51654;SDS011;37732;53.106;7.030;2024-01-11T04:47:44;60.50;;;36.55;;
51654;SDS011;37732;53.106;7.030;2024-01-11T04:50:10;57.85;;;39.47;;
51654;SDS011;37732;53.106;7.030;2024-01-11T04:52:36;52.38;;;36.15;;
51654;SDS011;37732;53.106;7.030;2024-01-11T04:55:01;54.33;;;40.05;;
51654;SDS011;37732;53.106;7.030;2024-01-11T04:57:27;55.78;;;42.47;;
51654;SDS011;37732;53.106;7.030;2024-01-11T04:59:53;52.85;;;28.77;;
51654;SDS011;37732;53.106;7.030;2024-01-11T05:02:21;59.25;;;39.67;;
51654;SDS011;37732;53.106;7.030;2024-01-11T05:04:48;62.10;;;45.13;;
51654;SDS011;37732;53.106;7.030;2024-01-11T05:07:13;60.63;;;35.97;;
51654;SDS011;37732;53.106;7.030;2024-01-11T05:09:39;71.95;;;48.75;;
51654;SDS011;37732;53.106;7.030;2024-01-11T05:12:05;60.63;;;41.50;;
51654;SDS011;37732;53.106;7.030;2024-01-11T05:14:31;66.63;;;43.47;;
51654;SDS011;37732;53.106;7.030;2024-01-11T05:16:57;67.07;;;42.13;;
51654;SDS011;37732;53.106;7.030;2024-01-11T05:19:22;70.25;;;52.00;;
51654;SDS011;37732;53.106;7.030;2024-01-11T05:21:48;66.68;;;49.38;;
51654;SDS011;37732;53.106;7.030;2024-01-11T05:24:14;74.78;;;50.58;;
51654;SDS011;37732;53.106;7.030;2024-01-11T05:26:39;65.35;;;48.95;;
51654;SDS011;37732;53.106;7.030;2024-01-11T05:29:06;75.13;;;47.28;;
51654;SDS011;37732;53.106;7.030;2024-01-11T05:31:32;56.85;;;37.05;;
51654;SDS011;37732;53.106;7.030;2024-01-11T05:33:58;65.15;;;46.20;;
51654;SDS011;37732;53.106;7.030;2024-01-11T05:36:23;63.28;;;42.03;;
51654;SDS011;37732;53.106;7.030;2024-01-11T05:38:50;58.33;;;36.38;;
51654;SDS011;37732;53.106;7.030;2024-01-11T05:41:16;72.60;;;49.92;;
51654;SDS011;37732;53.106;7.030;2024-01-11T05:43:41;61.70;;;42.17;;
51654;SDS011;37732;53.106;7.030;2024-01-11T05:46:08;66.55;;;47.67;;
51654;SDS011;37732;53.106;7.030;2024-01-11T05:48:34;63.88;;;48.65;;
51654;SDS011;37732;53.106;7.030;2024-01-11T05:51:00;61.55;;;38.35;;
51654;SDS011;37732;53.106;7.030;2024-01-11T05:53:25;65.47;;;48.25;;
51654;SDS011;37732;53.106;7.030;2024-01-11T05:55:52;69.35;;;49.88;;
51654;SDS011;37732;53.106;7.030;2024-01-11T05:58:18;61.88;;;39.72;;
51654;SDS011;37732;53.106;7.030;2024-01-11T06:00:45;70.47;;;49.00;;
51654;SDS011;37732;53.106;7.030;2024-01-11T06:03:14;66.50;;;47.92;;
51654;SDS011;37732;53.106;7.030;2024-01-11T06:05:40;69.18;;;49.22;;
51654;SDS011;37732;53.106;7.030;2024-01-11T06:08:06;60.55;;;45.22;;
51654;SDS011;37732;53.106;7.030;2024-01-11T06:10:31;61.72;;;45.15;;
51654;SDS011;37732;53.106;7.030;2024-01-11T06:12:58;64.45;;;47.10;;
51654;SDS011;37732;53.106;7.030;2024-01-11T06:15:23;66.38;;;47.67;;
51654;SDS011;37732;53.106;7.030;2024-01-11T06:17:49;65.80;;;44.92;;
51654;SDS011;37732;53.106;7.030;2024-01-11T06:20:15;67.97;;;49.17;;
51654;SDS011;37732;53.106;7.030;2024-01-11T06:22:41;69.60;;;49.92;;
51654;SDS011;37732;53.106;7.030;2024-01-11T06:25:07;64.57;;;46.08;;
51654;SDS011;37732;53.106;7.030;2024-01-11T06:27:33;67.75;;;47.42;;
51654;SDS011;37732;53.106;7.030;2024-01-11T06:29:58;67.10;;;46.95;;
51654;SDS011;37732;53.106;7.030;2024-01-11T06:32:24;50.72;;;27.77;;
51654;SDS011;37732;53.106;7.030;2024-01-11T06:34:50;62.97;;;45.28;;
51654;SDS011;37732;53.106;7.030;2024-01-11T06:37:16;62.45;;;43.03;;
51654;SDS011;37732;53.106;7.030;2024-01-11T06:39:42;63.55;;;42.88;;
51654;SDS011;37732;53.106;7.030;2024-01-11T06:42:08;62.50;;;45.53;;
51654;SDS011;37732;53.106;7.030;2024-01-11T06:44:33;67.60;;;48.13;;
51654;SDS011;37732;53.106;7.030;2024-01-11T06:46:59;62.78;;;46.35;;
51654;SDS011;37732;53.106;7.030;2024-01-11T06:49:26;68.45;;;50.13;;
51654;SDS011;37732;53.106;7.030;2024-01-11T06:51:52;56.22;;;35.60;;
51654;SDS011;37732;53.106;7.030;2024-01-11T06:54:18;64.72;;;47.20;;
51654;SDS011;37732;53.106;7.030;2024-01-11T06:56:44;68.85;;;50.63;;
51654;SDS011;37732;53.106;7.030;2024-01-11T06:59:09;62.70;;;42.72;;
51654;SDS011;37732;53.106;7.030;2024-01-11T07:01:35;54.85;;;35.17;;
51654;SDS011;37732;53.106;7.030;2024-01-11T07:04:01;69.45;;;51.92;;
51654;SDS011;37732;53.106;7.030;2024-01-11T07:06:26;60.90;;;44.97;;
51654;SDS011;37732;53.106;7.030;2024-01-11T07:08:52;57.08;;;43.35;;
51654;SDS011;37732;53.106;7.030;2024-01-11T07:11:18;52.58;;;42.30;;
51654;SDS011;37732;53.106;7.030;2024-01-11T07:13:44;64.18;;;44.03;;
51654;SDS011;37732;53.106;7.030;2024-01-11T07:16:09;63.10;;;48.25;;
51654;SDS011;37732;53.106;7.030;2024-01-11T07:18:35;69.22;;;49.17;;
51654;SDS011;37732;53.106;7.030;2024-01-11T07:21:01;56.55;;;31.92;;
51654;SDS011;37732;53.106;7.030;2024-01-11T07:23:27;64.55;;;46.15;;
51654;SDS011;37732;53.106;7.030;2024-01-11T07:25:52;66.93;;;46.55;;
51654;SDS011;37732;53.106;7.030;2024-01-11T07:28:18;67.35;;;47.17;;
51654;SDS011;37732;53.106;7.030;2024-01-11T07:30:50;69.35;;;47.00;;
51654;SDS011;37732;53.106;7.030;2024-01-11T07:33:16;68.15;;;50.20;;
51654;SDS011;37732;53.106;7.030;2024-01-11T07:35:42;65.35;;;47.90;;
51654;SDS011;37732;53.106;7.030;2024-01-11T07:38:08;67.65;;;50.25;;
51654;SDS011;37732;53.106;7.030;2024-01-11T07:40:34;68.30;;;49.50;;
51654;SDS011;37732;53.106;7.030;2024-01-11T07:43:00;66.38;;;49.15;;
51654;SDS011;37732;53.106;7.030;2024-01-11T07:45:26;68.15;;;48.30;;
51654;SDS011;37732;53.106;7.030;2024-01-11T07:47:52;65.70;;;46.22;;
51654;SDS011;37732;53.106;7.030;2024-01-11T07:50:18;69.88;;;51.67;;
51654;SDS011;37732;53.106;7.030;2024-01-11T07:52:44;75.05;;;51.20;;
51654;SDS011;37732;53.106;7.030;2024-01-11T07:55:10;70.55;;;49.58;;
51654;SDS011;37732;53.106;7.030;2024-01-11T07:57:37;67.97;;;49.63;;
51654;SDS011;37732;53.106;7.030;2024-01-11T08:00:04;66.75;;;48.25;;
51654;SDS011;37732;53.106;7.030;2024-01-11T08:02:36;68.82;;;50.03;;
51654;SDS011;37732;53.106;7.030;2024-01-11T08:05:03;67.72;;;48.95;;
51654;SDS011;37732;53.106;7.030;2024-01-11T08:07:30;63.30;;;47.00;;
51654;SDS011;37732;53.106;7.030;2024-01-11T08:09:56;69.03;;;49.55;;
51654;SDS011;37732;53.106;7.030;2024-01-11T08:12:22;65.75;;;46.40;;
51654;SDS011;37732;53.106;7.030;2024-01-11T08:14:48;64.47;;;46.63;;
51654;SDS011;37732;53.106;7.030;2024-01-11T08:17:14;63.60;;;46.42;;
51654;SDS011;37732;53.106;7.030;2024-01-11T08:19:40;66.40;;;48.92;;
51654;SDS011;37732;53.106;7.030;2024-01-11T08:22:10;63.63;;;47.22;;
51654;SDS011;37732;53.106;7.030;2024-01-11T08:24:36;64.85;;;45.78;;
51654;SDS011;37732;53.106;7.030;2024-01-11T08:27:03;69.05;;;46.22;;
51654;SDS011;37732;53.106;7.030;2024-01-11T08:29:29;68.22;;;46.70;;
51654;SDS011;37732;53.106;7.030;2024-01-11T08:31:55;63.50;;;45.38;;
51654;SDS011;37732;53.106;7.030;2024-01-11T08:34:21;59.72;;;46.25;;
51654;SDS011;37732;53.106;7.030;2024-01-11T08:36:48;62.58;;;40.92;;
51654;SDS011;37732;53.106;7.030;2024-01-11T08:39:14;55.85;;;40.33;;
51654;SDS011;37732;53.106;7.030;2024-01-11T08:41:40;63.72;;;47.65;;
51654;SDS011;37732;53.106;7.030;2024-01-11T08:44:06;68.68;;;47.05;;
51654;SDS011;37732;53.106;7.030;2024-01-11T08:46:33;63.08;;;44.80;;
51654;SDS011;37732;53.106;7.030;2024-01-11T08:48:59;63.05;;;45.88;;
51654;SDS011;37732;53.106;7.030;2024-01-11T08:51:28;66.32;;;47.13;;
51654;SDS011;37732;53.106;7.030;2024-01-11T08:53:54;59.88;;;45.05;;
51654;SDS011;37732;53.106;7.030;2024-01-11T08:56:20;59.50;;;43.75;;
51654;SDS011;37732;53.106;7.030;2024-01-11T08:58:46;55.60;;;41.30;;
51654;SDS011;37732;53.106;7.030;2024-01-11T09:01:13;63.42;;;41.90;;
51654;SDS011;37732;53.106;7.030;2024-01-11T09:03:39;68.18;;;49.70;;
51654;SDS011;37732;53.106;7.030;2024-01-11T09:06:05;60.47;;;44.20;;
51654;SDS011;37732;53.106;7.030;2024-01-11T09:08:32;60.70;;;44.83;;
51654;SDS011;37732;53.106;7.030;2024-01-11T09:10:58;63.25;;;45.13;;
51654;SDS011;37732;53.106;7.030;2024-01-11T09:13:24;64.00;;;46.70;;
51654;SDS011;37732;53.106;7.030;2024-01-11T09:15:53;58.88;;;43.17;;
51654;SDS011;37732;53.106;7.030;2024-01-11T09:18:19;51.60;;;38.20;;
51654;SDS011;37732;53.106;7.030;2024-01-11T09:20:45;57.53;;;42.25;;
51654;SDS011;37732;53.106;7.030;2024-01-11T09:23:12;55.30;;;41.03;;
51654;SDS011;37732;53.106;7.030;2024-01-11T09:25:38;53.45;;;39.47;;
51654;SDS011;37732;53.106;7.030;2024-01-11T09:28:04;55.08;;;39.22;;
51654;SDS011;37732;53.106;7.030;2024-01-11T09:30:29;52.92;;;38.40;;
51654;SDS011;37732;53.106;7.030;2024-01-11T09:32:55;47.97;;;36.38;;
51654;SDS011;37732;53.106;7.030;2024-01-11T09:35:21;54.83;;;39.47;;
51654;SDS011;37732;53.106;7.030;2024-01-11T09:37:48;55.85;;;38.92;;
51654;SDS011;37732;53.106;7.030;2024-01-11T09:40:14;48.83;;;37.78;;
51654;SDS011;37732;53.106;7.030;2024-01-11T09:42:42;51.65;;;36.83;;
51654;SDS011;37732;53.106;7.030;2024-01-11T09:45:12;49.33;;;35.80;;
51654;SDS011;37732;53.106;7.030;2024-01-11T09:47:40;50.10;;;37.28;;
51654;SDS011;37732;53.106;7.030;2024-01-11T09:50:07;45.33;;;35.53;;
51654;SDS011;37732;53.106;7.030;2024-01-11T09:52:33;49.83;;;37.42;;
51654;SDS011;37732;53.106;7.030;2024-01-11T09:54:59;49.25;;;38.13;;
51654;SDS011;37732;53.106;7.030;2024-01-11T09:57:28;46.33;;;36.65;;
51654;SDS011;37732;53.106;7.030;2024-01-11T09:59:56;46.20;;;37.33;;
51654;SDS011;37732;53.106;7.030;2024-01-11T10:02:25;41.58;;;33.83;;
51654;SDS011;37732;53.106;7.030;2024-01-11T10:04:55;46.53;;;36.75;;
51654;SDS011;37732;53.106;7.030;2024-01-11T10:07:21;43.35;;;35.13;;
51654;SDS011;37732;53.106;7.030;2024-01-11T10:09:49;44.65;;;34.17;;
51654;SDS011;37732;53.106;7.030;2024-01-11T10:12:20;44.65;;;31.63;;
51654;SDS011;37732;53.106;7.030;2024-01-11T10:14:49;45.42;;;33.03;;
51654;SDS011;37732;53.106;7.030;2024-01-11T10:17:16;45.17;;;34.17;;
51654;SDS011;37732;53.106;7.030;2024-01-11T10:19:42;44.92;;;32.70;;
51654;SDS011;37732;53.106;7.030;2024-01-11T10:22:09;45.33;;;34.03;;
51654;SDS011;37732;53.106;7.030;2024-01-11T10:24:41;44.60;;;34.33;;
51654;SDS011;37732;53.106;7.030;2024-01-11T10:27:10;48.60;;;36.72;;
51654;SDS011;37732;53.106;7.030;2024-01-11T10:29:36;43.17;;;31.60;;
51654;SDS011;37732;53.106;7.030;2024-01-11T10:32:03;43.58;;;33.95;;
51654;SDS011;37732;53.106;7.030;2024-01-11T10:34:29;40.42;;;30.25;;
51654;SDS011;37732;53.106;7.030;2024-01-11T10:36:55;42.15;;;31.60;;
51654;SDS011;37732;53.106;7.030;2024-01-11T10:39:25;41.67;;;31.13;;
51654;SDS011;37732;53.106;7.030;2024-01-11T10:41:56;45.45;;;32.58;;
51654;SDS011;37732;53.106;7.030;2024-01-11T10:44:24;40.97;;;31.08;;
51654;SDS011;37732;53.106;7.030;2024-01-11T10:46:54;43.72;;;31.42;;
51654;SDS011;37732;53.106;7.030;2024-01-11T10:49:22;40.97;;;31.65;;
51654;SDS011;37732;53.106;7.030;2024-01-11T10:52:07;41.70;;;30.60;;
51654;SDS011;37732;53.106;7.030;2024-01-11T10:54:33;40.30;;;30.17;;
51654;SDS011;37732;53.106;7.030;2024-01-11T10:57:00;41.05;;;31.05;;
51654;SDS011;37732;53.106;7.030;2024-01-11T10:59:26;37.67;;;30.13;;
51654;SDS011;37732;53.106;7.030;2024-01-11T11:01:53;36.38;;;28.13;;
51654;SDS011;37732;53.106;7.030;2024-01-11T11:04:21;40.22;;;31.23;;
51654;SDS011;37732;53.106;7.030;2024-01-11T11:06:51;37.22;;;27.70;;
51654;SDS011;37732;53.106;7.030;2024-01-11T11:09:22;39.72;;;28.77;;
51654;SDS011;37732;53.106;7.030;2024-01-11T11:11:49;33.97;;;26.67;;
51654;SDS011;37732;53.106;7.030;2024-01-11T11:14:16;36.03;;;27.58;;
51654;SDS011;37732;53.106;7.030;2024-01-11T11:16:43;30.50;;;25.15;;
51654;SDS011;37732;53.106;7.030;2024-01-11T11:19:10;32.13;;;25.70;;
51654;SDS011;37732;53.106;7.030;2024-01-11T11:21:43;31.17;;;23.63;;
51654;SDS011;37732;53.106;7.030;2024-01-11T11:24:10;32.63;;;25.30;;
51654;SDS011;37732;53.106;7.030;2024-01-11T11:26:41;33.15;;;22.98;;
51654;SDS011;37732;53.106;7.030;2024-01-11T11:29:08;31.52;;;24.50;;
51654;SDS011;37732;53.106;7.030;2024-01-11T11:31:35;31.20;;;24.58;;
51654;SDS011;37732;53.106;7.030;2024-01-11T11:34:01;29.35;;;23.98;;
51654;SDS011;37732;53.106;7.030;2024-01-11T11:36:28;30.20;;;24.20;;
51654;SDS011;37732;53.106;7.030;2024-01-11T11:38:59;30.15;;;24.25;;
51654;SDS011;37732;53.106;7.030;2024-01-11T11:41:32;31.20;;;24.13;;
51654;SDS011;37732;53.106;7.030;2024-01-11T11:44:01;32.45;;;25.08;;
51654;SDS011;37732;53.106;7.030;2024-01-11T11:46:28;33.15;;;23.85;;
51654;SDS011;37732;53.106;7.030;2024-01-11T11:48:54;32.00;;;22.20;;
51654;SDS011;37732;53.106;7.030;2024-01-11T11:51:22;31.27;;;23.30;;
51654;SDS011;37732;53.106;7.030;2024-01-11T11:53:48;30.17;;;22.48;;
51654;SDS011;37732;53.106;7.030;2024-01-11T11:56:16;29.23;;;22.35;;
51654;SDS011;37732;53.106;7.030;2024-01-11T11:58:43;31.98;;;24.23;;
51654;SDS011;37732;53.106;7.030;2024-01-11T12:01:10;32.80;;;24.58;;
51654;SDS011;37732;53.106;7.030;2024-01-11T12:03:36;35.03;;;25.55;;
51654;SDS011;37732;53.106;7.030;2024-01-11T12:06:06;30.13;;;24.15;;
51654;SDS011;37732;53.106;7.030;2024-01-11T12:08:33;29.05;;;23.52;;
51654;SDS011;37732;53.106;7.030;2024-01-11T12:10:59;29.63;;;24.15;;
51654;SDS011;37732;53.106;7.030;2024-01-11T12:13:26;30.05;;;24.45;;
51654;SDS011;37732;53.106;7.030;2024-01-11T12:15:52;30.73;;;24.63;;
51654;SDS011;37732;53.106;7.030;2024-01-11T12:18:19;33.15;;;23.38;;
51654;SDS011;37732;53.106;7.030;2024-01-11T12:20:45;30.30;;;23.50;;
51654;SDS011;37732;53.106;7.030;2024-01-11T12:23:11;31.45;;;24.88;;
51654;SDS011;37732;53.106;7.030;2024-01-11T12:25:39;32.88;;;25.35;;
51654;SDS011;37732;53.106;7.030;2024-01-11T12:28:06;32.05;;;26.23;;
51654;SDS011;37732;53.106;7.030;2024-01-11T12:30:32;33.75;;;24.98;;
51654;SDS011;37732;53.106;7.030;2024-01-11T12:32:58;34.70;;;25.63;;
51654;SDS011;37732;53.106;7.030;2024-01-11T12:35:29;33.03;;;25.48;;
51654;SDS011;37732;53.106;7.030;2024-01-11T12:37:58;31.95;;;23.50;;
51654;SDS011;37732;53.106;7.030;2024-01-11T12:40:37;34.05;;;25.60;;
51654;SDS011;37732;53.106;7.030;2024-01-11T12:45:34;33.05;;;24.55;;
51654;SDS011;37732;53.106;7.030;2024-01-11T12:48:00;34.30;;;24.77;;
51654;SDS011;37732;53.106;7.030;2024-01-11T12:50:30;34.88;;;26.33;;
51654;SDS011;37732;53.106;7.030;2024-01-11T12:53:09;36.30;;;26.20;;
51654;SDS011;37732;53.106;7.030;2024-01-11T12:55:45;37.40;;;27.80;;
51654;SDS011;37732;53.106;7.030;2024-01-11T12:58:11;38.03;;;28.30;;
51654;SDS011;37732;53.106;7.030;2024-01-11T13:00:38;36.17;;;27.98;;
51654;SDS011;37732;53.106;7.030;2024-01-11T13:03:05;37.75;;;27.95;;
51654;SDS011;37732;53.106;7.030;2024-01-11T13:05:31;44.10;;;31.15;;
51654;SDS011;37732;53.106;7.030;2024-01-11T13:08:09;43.33;;;28.65;;
51654;SDS011;37732;53.106;7.030;2024-01-11T13:10:36;42.95;;;30.83;;
51654;SDS011;37732;53.106;7.030;2024-01-11T13:13:02;41.55;;;29.42;;
51654;SDS011;37732;53.106;7.030;2024-01-11T13:15:29;41.42;;;31.27;;
51654;SDS011;37732;53.106;7.030;2024-01-11T13:17:56;43.70;;;32.47;;
51654;SDS011;37732;53.106;7.030;2024-01-11T13:20:23;43.45;;;32.10;;
51654;SDS011;37732;53.106;7.030;2024-01-11T13:25:41;40.08;;;29.30;;
51654;SDS011;37732;53.106;7.030;2024-01-11T13:28:08;44.35;;;29.85;;
51654;SDS011;37732;53.106;7.030;2024-01-11T13:30:34;45.25;;;29.75;;
51654;SDS011;37732;53.106;7.030;2024-01-11T13:33:00;40.95;;;30.38;;
51654;SDS011;37732;53.106;7.030;2024-01-11T13:35:27;41.15;;;30.48;;
51654;SDS011;37732;53.106;7.030;2024-01-11T13:37:52;47.63;;;32.53;;
51654;SDS011;37732;53.106;7.030;2024-01-11T13:40:18;45.28;;;31.42;;
51654;SDS011;37732;53.106;7.030;2024-01-11T13:42:44;45.55;;;32.50;;
51654;SDS011;37732;53.106;7.030;2024-01-11T13:45:10;42.22;;;30.60;;
51654;SDS011;37732;53.106;7.030;2024-01-11T13:47:36;49.67;;;34.22;;
51654;SDS011;37732;53.106;7.030;2024-01-11T13:50:01;46.88;;;31.95;;
51654;SDS011;37732;53.106;7.030;2024-01-11T13:52:27;45.00;;;32.47;;
51654;SDS011;37732;53.106;7.030;2024-01-11T13:54:53;41.90;;;30.58;;
51654;SDS011;37732;53.106;7.030;2024-01-11T13:57:19;42.78;;;31.60;;
51654;SDS011;37732;53.106;7.030;2024-01-11T13:59:46;43.75;;;30.50;;
51654;SDS011;37732;53.106;7.030;2024-01-11T14:02:12;44.15;;;34.17;;
51654;SDS011;37732;53.106;7.030;2024-01-11T14:04:38;41.67;;;32.95;;
51654;SDS011;37732;53.106;7.030;2024-01-11T14:07:04;46.05;;;33.05;;
51654;SDS011;37732;53.106;7.030;2024-01-11T14:09:31;42.00;;;30.42;;
51654;SDS011;37732;53.106;7.030;2024-01-11T14:11:57;111.22;;;40.45;;
51654;SDS011;37732;53.106;7.030;2024-01-11T14:14:22;42.40;;;30.45;;
51654;SDS011;37732;53.106;7.030;2024-01-11T14:16:48;42.72;;;29.95;;
51654;SDS011;37732;53.106;7.030;2024-01-11T14:19:14;41.80;;;32.05;;
51654;SDS011;37732;53.106;7.030;2024-01-11T14:21:40;44.47;;;29.52;;